Terminal Aerodrome Forecast
Issued by NWS

Home | Current Version | Previous Version | Text Only | Print | Product List | Glossary On
Versions: 1 2 3 4 5 6 7 8 9 10 11 12 13 14 15 16 17 18 19 20 21 22 23 24 25 26 27 28 29 30 31 32
000
FTUS41 KOKX 242340
TAFHPN
TAF
KHPN 242340Z 2500/2524 13007KT P6SM OVC050
     FM250300 10005KT 6SM -RA SCT025 OVC045
     FM250600 09006KT 5SM -RA SCT006 OVC015
     FM250900 09012G18KT 2SM RA BR OVC005
      TEMPO 2511/2515 1SM +RA BR
     FM251500 09012G18KT 3/4SM SHRA BR OVC004
     FM251900 VRB03KT 1/4SM -SHRA FG OVC003=

USA.gov is the U.S. government's official web portal to all federal, state and local government web resources and services.